createdAt,value
2023-02-19T00:01:45.740Z,4.35
2023-02-19T00:04:15.604Z,4.78
2023-02-19T00:06:43.056Z,4.57
2023-02-19T00:09:12.083Z,4.57
2023-02-19T00:11:39.428Z,4.70
2023-02-19T00:14:06.665Z,4.88
2023-02-19T00:16:37.092Z,4.60
2023-02-19T00:19:06.550Z,4.70
2023-02-19T00:21:34.182Z,4.60
2023-02-19T00:24:03.718Z,4.57
2023-02-19T00:26:30.981Z,3.95
2023-02-19T00:28:58.625Z,3.95
2023-02-19T00:31:32.792Z,4.20
2023-02-19T00:34:03.863Z,3.78
2023-02-19T00:36:32.127Z,4.30
2023-02-19T00:38:59.349Z,4.13
2023-02-19T00:41:26.266Z,4.47
2023-02-19T00:43:58.663Z,4.35
2023-02-19T00:46:28.515Z,4.30
2023-02-19T00:48:56.384Z,4.57
2023-02-19T00:51:29.867Z,4.30
2023-02-19T00:53:57.294Z,4.90
2023-02-19T00:56:24.513Z,4.63
2023-02-19T00:58:51.778Z,4.65
2023-02-19T01:01:19.460Z,4.68
2023-02-19T01:03:47.002Z,4.50
2023-02-19T01:06:16.468Z,4.60
2023-02-19T01:08:43.297Z,4.78
2023-02-19T01:11:11.425Z,4.13
2023-02-19T01:13:39.271Z,4.05
2023-02-19T01:16:15.239Z,4.10
2023-02-19T01:18:42.580Z,4.40
2023-02-19T01:21:30.647Z,4.10
2023-02-19T01:23:58.690Z,4.05
2023-02-19T01:26:28.823Z,5.00
2023-02-19T01:28:55.843Z,4.47
2023-02-19T01:31:24.581Z,4.15
2023-02-19T01:33:54.790Z,3.88
2023-02-19T01:36:23.003Z,3.78
2023-02-19T01:38:50.060Z,4.00
2023-02-19T01:41:22.545Z,4.28
2023-02-19T01:44:01.875Z,4.00
2023-02-19T01:46:36.483Z,4.18
2023-02-19T01:49:26.408Z,4.20
2023-02-19T01:52:00.777Z,3.90
2023-02-19T01:54:31.084Z,3.78
2023-02-19T01:56:59.593Z,3.60
2023-02-19T01:59:26.653Z,2.53
